Terminal Aerodrome Forecast
Issued by NWS

Home | Current Version | Previous Version | Text Only | Print | Product List | Glossary On
Versions: 1 2 3 4 5 6 7 8 9 10 11 12 13 14
000
FTUS43 KMPX 261740
TAFRWF
TAF
KRWF 261740Z 2618/2718 33011G18KT P6SM BKN035
     FM261900 33012G18KT P6SM BKN025
     FM270000 35008KT P6SM SCT030
     FM270600 35007KT P6SM SKC
     FM271200 VRB02KT P6SM SCT250=

USA.gov is the U.S. government's official web portal to all federal, state and local government web resources and services.